Time;durP1;ratioP1;P1;durP2;ratioP2;P2;SDS_P1;SDS_P2;PMS_P1;PMS_P2;Temp;Humidity;BMP_temperature;BMP_pressure;BME280_temperature;BME280_humidity;BME280_pressure;Samples;Min_cycle;Max_cycle;Signal;HPM_P1;HPM_P2
2023/08/31 00:00:41;;;;;;;2.28;1.55;;;;;;;;;;5016632;28;20543;-72
2023/08/31 00:03:06;;;;;;;2.22;1.42;;;;;;;;;;5017167;28;20041;-72
2023/08/31 00:05:32;;;;;;;1.60;1.50;;;;;;;;;;4996327;28;20053;-72
2023/08/31 00:07:57;;;;;;;2.80;1.60;;;;;;;;;;4997307;28;20569;-72
2023/08/31 00:10:23;;;;;;;1.33;1.10;;;;;;;;;;5010678;28;20041;-72
2023/08/31 00:12:49;;;;;;;2.47;1.55;;;;;;;;;;5016943;28;20410;-72
2023/08/31 00:15:15;;;;;;;4.93;1.90;;;;;;;;;;5013586;28;20036;-72
2023/08/31 00:17:40;;;;;;;2.40;1.20;;;;;;;;;;5014627;28;20045;-72
2023/08/31 00:20:08;;;;;;;1.30;1.10;;;;;;;;;;5002073;28;20096;-72
2023/08/31 00:22:33;;;;;;;2.30;2.10;;;;;;;;;;5005806;28;20095;-72
2023/08/31 00:24:58;;;;;;;1.73;1.42;;;;;;;;;;5001274;28;20034;-72
2023/08/31 00:27:24;;;;;;;1.05;0.98;;;;;;;;;;5016178;28;20080;-72
2023/08/31 00:29:50;;;;;;;2.03;1.73;;;;;;;;;;4993475;28;20049;-72
2023/08/31 00:32:17;;;;;;;2.03;1.40;;;;;;;;;;5003502;28;20105;-72
2023/08/31 00:34:42;;;;;;;1.75;1.63;;;;;;;;;;5010596;28;20136;-72
2023/08/31 00:37:08;;;;;;;1.75;1.20;;;;;;;;;;5006176;28;20580;-72
2023/08/31 00:39:34;;;;;;;3.00;1.50;;;;;;;;;;5012021;28;20133;-71
2023/08/31 00:42:00;;;;;;;1.98;1.00;;;;;;;;;;5004569;28;20093;-72
2023/08/31 00:44:25;;;;;;;2.03;1.80;;;;;;;;;;5002881;28;20044;-72
2023/08/31 00:46:51;;;;;;;3.42;1.73;;;;;;;;;;5007173;28;20742;-72
2023/08/31 00:49:17;;;;;;;1.88;1.77;;;;;;;;;;5008461;28;20037;-72
2023/08/31 00:51:48;;;;;;;3.42;2.28;;;;;;;;;;4997303;28;20039;-71
2023/08/31 00:54:14;;;;;;;;;;;;;;;;;;5008775;28;20029;-71
2023/08/31 00:56:39;;;;;;;1.17;0.93;;;;;;;;;;5016700;28;20451;-72
2023/08/31 00:59:04;;;;;;;3.42;2.22;;;;;;;;;;5011045;28;20036;-71
2023/08/31 01:01:40;;;;;;;1.48;1.38;;;;;;;;;;5014315;28;20409;-72
2023/08/31 01:04:18;;;;;;;2.72;2.35;;;;;;;;;;4991004;28;20372;-71
2023/08/31 01:06:55;;;;;;;2.10;1.90;;;;;;;;;;5015698;28;20049;-71
2023/08/31 01:09:39;;;;;;;3.55;1.80;;;;;;;;;;4997469;28;20129;-72
2023/08/31 01:12:10;;;;;;;2.83;2.08;;;;;;;;;;5007230;28;20045;-72
2023/08/31 01:14:59;;;;;;;2.65;2.13;;;;;;;;;;4977150;28;20043;-71
2023/08/31 01:17:28;;;;;;;2.53;1.73;;;;;;;;;;5005954;28;20163;-72
2023/08/31 01:19:56;;;;;;;2.83;2.05;;;;;;;;;;5006550;28;20064;-71
2023/08/31 01:22:40;;;;;;;1.42;1.33;;;;;;;;;;5008955;28;20035;-72
2023/08/31 01:25:08;;;;;;;0.98;0.88;;;;;;;;;;4999143;28;20046;-72
2023/08/31 01:27:35;;;;;;;4.03;2.75;;;;;;;;;;5016154;28;20056;-72
2023/08/31 01:30:02;;;;;;;2.25;2.05;;;;;;;;;;5016627;28;20030;-72
2023/08/31 01:32:28;;;;;;;2.47;1.98;;;;;;;;;;5012794;28;20033;-72
2023/08/31 01:34:57;;;;;;;4.50;2.90;;;;;;;;;;4999455;28;20086;-71
2023/08/31 01:37:43;;;;;;;3.08;2.53;;;;;;;;;;4988926;28;20053;-72
2023/08/31 01:40:14;;;;;;;1.98;1.38;;;;;;;;;;5006208;28;20628;-71
2023/08/31 01:42:42;;;;;;;1.98;1.70;;;;;;;;;;5007968;28;20037;-71
2023/08/31 01:45:08;;;;;;;3.20;2.70;;;;;;;;;;5004205;28;20257;-71
2023/08/31 01:47:34;;;;;;;4.55;3.28;;;;;;;;;;5005029;28;20056;-71
2023/08/31 01:49:59;;;;;;;6.43;3.20;;;;;;;;;;4992556;28;20051;-71
2023/08/31 01:52:24;;;;;;;4.10;3.67;;;;;;;;;;5004627;28;20415;-71
2023/08/31 01:54:50;;;;;;;3.20;2.08;;;;;;;;;;5015454;28;20790;-71
2023/08/31 01:57:15;;;;;;;2.60;2.40;;;;;;;;;;5005649;28;20054;-71
2023/08/31 01:59:40;;;;;;;4.57;3.67;;;;;;;;;;5006389;28;20037;-71
2023/08/31 02:02:06;;;;;;;8.30;3.80;;;;;;;;;;5000835;28;20084;-71
2023/08/31 02:04:31;;;;;;;5.30;2.47;;;;;;;;;;4989260;28;20039;-71
2023/08/31 02:06:57;;;;;;;1.88;1.63;;;;;;;;;;5015050;28;20041;-71
2023/08/31 02:09:22;;;;;;;4.20;3.00;;;;;;;;;;5004840;28;20124;-71
2023/08/31 02:11:48;;;;;;;4.22;2.78;;;;;;;;;;5010215;28;20044;-71
2023/08/31 02:14:14;;;;;;;1.60;1.50;;;;;;;;;;5013893;28;20036;-71
2023/08/31 02:16:39;;;;;;;1.40;1.30;;;;;;;;;;5010358;28;20073;-71
2023/08/31 02:19:04;;;;;;;2.80;2.15;;;;;;;;;;5001917;28;20207;-71
2023/08/31 02:21:30;;;;;;;1.67;1.58;;;;;;;;;;5005142;28;20036;-71
2023/08/31 02:23:55;;;;;;;2.05;1.88;;;;;;;;;;5013408;28;20033;-71
2023/08/31 02:26:22;;;;;;;4.00;3.13;;;;;;;;;;4993920;28;20105;-71
2023/08/31 02:28:47;;;;;;;2.83;2.55;;;;;;;;;;5003241;28;20126;-71
2023/08/31 02:31:13;;;;;;;6.13;3.78;;;;;;;;;;4993464;28;20528;-71
2023/08/31 02:33:39;;;;;;;1.33;1.23;;;;;;;;;;5006405;28;20041;-71
2023/08/31 02:36:04;;;;;;;4.32;3.25;;;;;;;;;;5011159;28;20045;-71
2023/08/31 02:38:29;;;;;;;3.33;2.92;;;;;;;;;;5011716;28;20036;-71
2023/08/31 02:40:55;;;;;;;3.47;2.65;;;;;;;;;;5004255;28;20065;-71
2023/08/31 02:43:20;;;;;;;7.18;4.75;;;;;;;;;;4995084;28;20033;-71
2023/08/31 02:45:46;;;;;;;5.97;3.35;;;;;;;;;;4996921;28;20119;-71
2023/08/31 02:48:11;;;;;;;3.10;2.60;;;;;;;;;;5011260;28;20033;-71
2023/08/31 02:50:38;;;;;;;5.07;4.07;;;;;;;;;;5008847;28;20045;-71
2023/08/31 02:53:03;;;;;;;2.00;1.75;;;;;;;;;;4998627;28;20026;-71
2023/08/31 02:55:31;;;;;;;2.10;1.50;;;;;;;;;;4999381;28;20037;-71
2023/08/31 02:57:57;;;;;;;2.70;2.13;;;;;;;;;;5014788;28;20034;-71
2023/08/31 03:00:22;;;;;;;6.10;4.40;;;;;;;;;;4998457;28;20033;-71
2023/08/31 03:02:48;;;;;;;5.63;3.80;;;;;;;;;;5002673;28;20744;-71
2023/08/31 03:05:14;;;;;;;2.63;2.17;;;;;;;;;;5001993;28;20026;-71
2023/08/31 03:07:39;;;;;;;5.55;4.07;;;;;;;;;;5008802;28;20052;-71
2023/08/31 03:10:05;;;;;;;3.00;2.40;;;;;;;;;;5011721;28;20120;-70
2023/08/31 03:12:30;;;;;;;5.55;4.25;;;;;;;;;;4996528;28;20128;-71
2023/08/31 03:14:56;;;;;;;2.25;1.75;;;;;;;;;;4985347;28;20121;-71
2023/08/31 03:17:21;;;;;;;10.30;5.93;;;;;;;;;;5000427;28;20047;-72
2023/08/31 03:19:47;;;;;;;4.70;4.22;;;;;;;;;;4973954;28;20041;-71
2023/08/31 03:22:12;;;;;;;3.42;2.95;;;;;;;;;;4996076;28;20068;-72
2023/08/31 03:24:38;;;;;;;8.50;4.97;;;;;;;;;;5005323;28;20168;-72
2023/08/31 03:27:03;;;;;;;5.75;4.25;;;;;;;;;;4999043;28;20030;-71
2023/08/31 03:29:28;;;;;;;4.30;1.95;;;;;;;;;;4993290;28;20037;-72
2023/08/31 03:31:55;;;;;;;2.10;1.73;;;;;;;;;;5012150;28;20687;-72
2023/08/31 03:34:20;;;;;;;4.90;3.92;;;;;;;;;;5013768;28;20116;-72
2023/08/31 03:36:46;;;;;;;5.60;4.10;;;;;;;;;;5003238;28;20124;-71
2023/08/31 03:39:11;;;;;;;7.55;4.82;;;;;;;;;;5002378;28;20088;-71
2023/08/31 03:41:36;;;;;;;4.55;4.15;;;;;;;;;;5011085;28;20451;-71
2023/08/31 03:44:02;;;;;;;5.40;4.53;;;;;;;;;;5003243;28;20029;-71
2023/08/31 03:46:27;;;;;;;7.78;5.28;;;;;;;;;;5009857;28;20034;-71
2023/08/31 03:48:52;;;;;;;7.78;5.07;;;;;;;;;;4994135;28;20038;-71
2023/08/31 03:51:18;;;;;;;7.28;4.47;;;;;;;;;;4987295;28;20616;-71
2023/08/31 03:53:44;;;;;;;6.72;3.85;;;;;;;;;;5001468;28;20034;-71
2023/08/31 03:56:10;;;;;;;3.28;2.67;;;;;;;;;;4987553;28;20034;-70
2023/08/31 03:58:36;;;;;;;6.47;2.97;;;;;;;;;;4989440;28;20046;-70
2023/08/31 04:01:01;;;;;;;5.45;4.05;;;;;;;;;;5005999;28;20038;-71
2023/08/31 04:03:26;;;;;;;5.13;4.28;;;;;;;;;;5010145;28;20045;-71
2023/08/31 04:05:55;;;;;;;1.90;1.80;;;;;;;;;;5013989;28;20502;-71
2023/08/31 04:08:21;;;;;;;2.35;2.15;;;;;;;;;;5008166;28;20155;-71
2023/08/31 04:10:46;;;;;;;4.72;4.10;;;;;;;;;;5001500;28;20152;-71
2023/08/31 04:13:12;;;;;;;9.15;4.82;;;;;;;;;;4998467;28;20044;-71
2023/08/31 04:15:37;;;;;;;4.82;2.92;;;;;;;;;;5005758;28;20048;-71
2023/08/31 04:18:02;;;;;;;2.17;1.70;;;;;;;;;;5014016;28;20136;-70
2023/08/31 04:20:28;;;;;;;3.75;3.30;;;;;;;;;;4997560;28;20038;-70
2023/08/31 04:22:53;;;;;;;4.43;3.80;;;;;;;;;;4995913;28;20136;-70
2023/08/31 04:25:19;;;;;;;2.00;1.88;;;;;;;;;;4999822;28;20045;-70
2023/08/31 04:27:45;;;;;;;4.30;3.05;;;;;;;;;;4994976;28;20048;-70
2023/08/31 04:30:11;;;;;;;5.22;3.38;;;;;;;;;;5004940;28;20144;-70
2023/08/31 04:32:37;;;;;;;5.10;3.15;;;;;;;;;;4994887;28;20132;-71
2023/08/31 04:35:05;;;;;;;3.05;2.47;;;;;;;;;;5000888;28;20580;-70
2023/08/31 04:37:32;;;;;;;2.92;2.10;;;;;;;;;;5003726;28;20061;-71
2023/08/31 04:39:57;;;;;;;9.13;4.55;;;;;;;;;;5000585;28;20030;-70
2023/08/31 04:42:23;;;;;;;7.43;4.40;;;;;;;;;;5008833;28;20109;-70
2023/08/31 04:44:49;;;;;;;6.93;3.45;;;;;;;;;;5005581;28;20073;-71
2023/08/31 04:47:15;;;;;;;5.30;4.10;;;;;;;;;;5008058;28;20045;-71
2023/08/31 04:49:40;;;;;;;5.60;3.83;;;;;;;;;;4992359;28;20037;-70
2023/08/31 04:52:06;;;;;;;5.85;3.80;;;;;;;;;;4998837;28;20119;-70
2023/08/31 04:54:31;;;;;;;3.30;2.65;;;;;;;;;;4978135;28;21159;-71
2023/08/31 04:56:56;;;;;;;9.48;4.40;;;;;;;;;;5000982;28;20522;-71
2023/08/31 04:59:22;;;;;;;4.07;2.33;;;;;;;;;;4992557;28;20050;-71
2023/08/31 05:01:47;;;;;;;4.22;3.15;;;;;;;;;;5004148;28;20053;-70
2023/08/31 05:04:13;;;;;;;3.58;2.95;;;;;;;;;;4999468;28;20042;-72
2023/08/31 05:06:38;;;;;;;4.75;4.15;;;;;;;;;;5002387;28;20112;-71
2023/08/31 05:09:04;;;;;;;3.88;2.63;;;;;;;;;;5004830;28;20033;-70
2023/08/31 05:11:29;;;;;;;7.10;4.22;;;;;;;;;;5003882;28;20041;-70
2023/08/31 05:13:55;;;;;;;5.03;2.72;;;;;;;;;;5006945;28;20038;-70
2023/08/31 05:16:20;;;;;;;6.95;5.18;;;;;;;;;;4992471;28;20041;-70
2023/08/31 05:18:46;;;;;;;6.97;5.00;;;;;;;;;;5003523;28;20081;-70
2023/08/31 05:21:11;;;;;;;5.50;4.07;;;;;;;;;;5012247;28;20041;-70
2023/08/31 05:23:37;;;;;;;8.23;4.80;;;;;;;;;;4999452;28;20052;-70
2023/08/31 05:26:02;;;;;;;5.05;4.20;;;;;;;;;;5005404;28;20547;-70
2023/08/31 05:28:28;;;;;;;2.47;2.28;;;;;;;;;;4992724;28;20042;-70
2023/08/31 05:30:55;;;;;;;7.75;5.07;;;;;;;;;;5001624;28;20046;-70
2023/08/31 05:33:27;;;;;;;2.97;2.72;;;;;;;;;;5007226;28;20045;-70
2023/08/31 05:35:52;;;;;;;6.93;4.22;;;;;;;;;;5005107;28;20040;-70
2023/08/31 05:38:18;;;;;;;6.68;4.78;;;;;;;;;;4988207;28;20034;-70
2023/08/31 05:40:45;;;;;;;8.32;5.72;;;;;;;;;;5009479;28;20053;-69
2023/08/31 05:43:14;;;;;;;9.23;6.22;;;;;;;;;;5015583;28;20558;-70
2023/08/31 05:45:40;;;;;;;4.75;3.03;;;;;;;;;;4999765;28;20053;-70
2023/08/31 05:48:05;;;;;;;10.35;5.10;;;;;;;;;;5000336;28;20073;-70
2023/08/31 05:50:31;;;;;;;7.68;5.95;;;;;;;;;;4995109;28;20069;-70
2023/08/31 05:52:57;;;;;;;3.10;2.75;;;;;;;;;;5015725;28;20069;-70
2023/08/31 05:55:22;;;;;;;8.13;5.38;;;;;;;;;;5015764;28;20438;-70
2023/08/31 05:57:48;;;;;;;7.32;5.25;;;;;;;;;;5011918;28;20037;-70
2023/08/31 06:00:14;;;;;;;4.32;3.80;;;;;;;;;;4999131;28;20037;-70
2023/08/31 06:02:39;;;;;;;8.35;6.32;;;;;;;;;;5001464;28;20137;-70
2023/08/31 06:05:05;;;;;;;10.00;6.15;;;;;;;;;;5002050;28;20049;-70
2023/08/31 06:07:31;;;;;;;3.72;3.25;;;;;;;;;;5007079;28;20053;-70
2023/08/31 06:09:56;;;;;;;3.83;3.28;;;;;;;;;;4999962;28;20046;-70
2023/08/31 06:12:22;;;;;;;8.15;4.65;;;;;;;;;;4999568;28;20068;-70
2023/08/31 06:14:47;;;;;;;7.93;4.95;;;;;;;;;;5013103;28;20041;-70
2023/08/31 06:17:13;;;;;;;3.35;3.05;;;;;;;;;;5014172;28;20121;-70
2023/08/31 06:19:39;;;;;;;7.90;4.55;;;;;;;;;;4998602;28;20076;-70
2023/08/31 06:22:04;;;;;;;2.80;2.60;;;;;;;;;;4998252;28;20034;-70
2023/08/31 06:24:32;;;;;;;7.30;4.57;;;;;;;;;;5003015;28;20096;-70
2023/08/31 06:26:58;;;;;;;5.25;4.05;;;;;;;;;;4983246;28;20099;-70
2023/08/31 06:29:23;;;;;;;7.30;5.15;;;;;;;;;;5003987;28;20586;-70
2023/08/31 06:31:49;;;;;;;7.93;5.75;;;;;;;;;;4997121;28;20414;-70
2023/08/31 06:34:14;;;;;;;6.60;5.03;;;;;;;;;;4992566;28;20692;-70
2023/08/31 06:36:39;;;;;;;9.32;5.63;;;;;;;;;;5008127;28;20073;-70
2023/08/31 06:39:06;;;;;;;8.18;5.25;;;;;;;;;;5002678;28;20141;-70
2023/08/31 06:41:32;;;;;;;2.72;2.33;;;;;;;;;;5006398;28;20037;-70
2023/08/31 06:43:57;;;;;;;6.60;4.28;;;;;;;;;;4989229;28;20038;-70
2023/08/31 06:46:23;;;;;;;5.00;2.80;;;;;;;;;;5008370;28;20045;-70
2023/08/31 06:48:48;;;;;;;6.47;4.50;;;;;;;;;;4983641;28;20045;-70
2023/08/31 06:51:15;;;;;;;9.90;5.97;;;;;;;;;;4984072;28;20040;-70
2023/08/31 06:53:43;;;;;;;6.32;4.00;;;;;;;;;;4988342;28;20427;-70
2023/08/31 06:56:09;;;;;;;6.97;4.10;;;;;;;;;;4992141;28;20038;-70
2023/08/31 06:58:34;;;;;;;4.90;3.72;;;;;;;;;;4987912;28;20453;-70
2023/08/31 07:01:01;;;;;;;4.70;3.05;;;;;;;;;;5003138;28;20053;-70
2023/08/31 07:03:26;;;;;;;3.63;2.40;;;;;;;;;;4973374;28;20043;-70
2023/08/31 07:05:52;;;;;;;6.72;4.05;;;;;;;;;;5004594;28;20068;-70
2023/08/31 07:08:17;;;;;;;3.40;3.08;;;;;;;;;;5000370;28;20589;-70
2023/08/31 07:10:43;;;;;;;4.47;3.63;;;;;;;;;;5001656;28;20042;-70
2023/08/31 07:13:08;;;;;;;3.50;2.92;;;;;;;;;;4979698;28;20037;-70
2023/08/31 07:15:34;;;;;;;6.20;4.10;;;;;;;;;;4998286;28;20520;-70
2023/08/31 07:18:00;;;;;;;6.13;3.75;;;;;;;;;;4989849;28;20051;-69
2023/08/31 07:20:25;;;;;;;7.72;4.07;;;;;;;;;;4978285;28;20038;-70
2023/08/31 07:22:51;;;;;;;6.32;4.18;;;;;;;;;;4995749;28;20041;-70
2023/08/31 07:25:17;;;;;;;8.38;4.32;;;;;;;;;;4955910;28;20089;-70
2023/08/31 07:27:42;;;;;;;6.63;5.38;;;;;;;;;;4998958;28;20045;-70
2023/08/31 07:30:09;;;;;;;4.00;2.95;;;;;;;;;;4985088;28;20155;-70
2023/08/31 07:32:37;;;;;;;7.97;5.50;;;;;;;;;;4988049;28;20042;-70
2023/08/31 07:35:04;;;;;;;4.85;3.85;;;;;;;;;;4988748;28;20231;-70
2023/08/31 07:37:30;;;;;;;6.43;4.78;;;;;;;;;;4989869;28;20045;-71
2023/08/31 07:39:58;;;;;;;2.92;2.63;;;;;;;;;;5009033;28;20104;-71
2023/08/31 07:42:23;;;;;;;8.05;5.65;;;;;;;;;;5005152;28;20029;-70
2023/08/31 07:44:49;;;;;;;5.68;4.72;;;;;;;;;;4991555;28;20057;-71
2023/08/31 07:47:14;;;;;;;7.88;5.70;;;;;;;;;;4988233;28;20034;-71
2023/08/31 07:49:40;;;;;;;3.65;2.78;;;;;;;;;;4989631;28;20158;-71
2023/08/31 07:52:06;;;;;;;5.88;5.10;;;;;;;;;;5006470;28;20042;-71
2023/08/31 07:54:31;;;;;;;2.80;2.22;;;;;;;;;;5004506;28;20133;-71
2023/08/31 07:56:56;;;;;;;5.55;4.13;;;;;;;;;;4989707;28;20034;-71
2023/08/31 07:59:22;;;;;;;1.80;1.70;;;;;;;;;;4992355;28;20053;-71
2023/08/31 08:01:48;;;;;;;2.83;2.22;;;;;;;;;;4981445;28;20069;-71
2023/08/31 08:04:13;;;;;;;1.85;1.75;;;;;;;;;;4989935;28;20042;-71
2023/08/31 08:06:39;;;;;;;5.50;4.50;;;;;;;;;;4991644;28;20493;-71
2023/08/31 08:09:05;;;;;;;3.45;2.78;;;;;;;;;;4989943;28;20088;-71
2023/08/31 08:11:31;;;;;;;8.00;3.92;;;;;;;;;;5002645;28;20409;-71
2023/08/31 08:13:57;;;;;;;3.58;3.20;;;;;;;;;;4987210;28;20073;-71
2023/08/31 08:16:22;;;;;;;2.78;2.58;;;;;;;;;;5004134;28;20083;-71
2023/08/31 08:18:49;;;;;;;4.10;3.42;;;;;;;;;;5010712;28;20064;-72
2023/08/31 08:21:14;;;;;;;4.45;3.88;;;;;;;;;;5010760;28;20030;-71
2023/08/31 08:23:40;;;;;;;1.92;1.80;;;;;;;;;;5008882;28;20049;-72
2023/08/31 08:26:06;;;;;;;4.00;2.90;;;;;;;;;;4987824;28;20037;-73
2023/08/31 08:28:32;;;;;;;3.58;2.80;;;;;;;;;;4978255;28;20498;-71
2023/08/31 08:31:01;;;;;;;3.63;2.03;;;;;;;;;;4982938;28;20042;-71
2023/08/31 08:33:27;;;;;;;1.80;1.70;;;;;;;;;;4989980;28;20080;-72
2023/08/31 08:35:56;;;;;;;2.35;2.15;;;;;;;;;;4972582;28;20039;-72
2023/08/31 08:38:25;;;;;;;2.50;2.30;;;;;;;;;;5000613;28;20088;-72
2023/08/31 08:40:50;;;;;;;2.65;2.30;;;;;;;;;;4979406;28;20049;-72
2023/08/31 08:43:23;;;;;;;2.42;2.22;;;;;;;;;;5000015;28;20036;-72
2023/08/31 08:45:50;;;;;;;2.55;1.50;;;;;;;;;;4990582;28;20052;-72
2023/08/31 08:48:17;;;;;;;4.57;2.80;;;;;;;;;;5007876;28;20046;-73
2023/08/31 08:50:43;;;;;;;3.42;2.38;;;;;;;;;;4999238;28;20041;-72
2023/08/31 08:53:09;;;;;;;2.10;1.60;;;;;;;;;;4993032;28;20046;-72
2023/08/31 08:55:34;;;;;;;3.38;2.38;;;;;;;;;;4983113;28;20051;-72
2023/08/31 08:58:00;;;;;;;2.47;2.20;;;;;;;;;;4993082;28;20037;-72
2023/08/31 09:00:27;;;;;;;2.90;2.20;;;;;;;;;;4988646;28;20505;-72
2023/08/31 09:02:53;;;;;;;2.92;2.38;;;;;;;;;;5008782;28;20038;-73
2023/08/31 09:05:19;;;;;;;3.83;2.35;;;;;;;;;;4993150;28;20486;-72
2023/08/31 09:08:10;;;;;;;3.85;2.45;;;;;;;;;;4978807;28;20045;-73
2023/08/31 09:10:45;;;;;;;3.53;2.50;;;;;;;;;;5003581;28;20041;-74
2023/08/31 09:13:18;;;;;;;3.13;2.35;;;;;;;;;;5003855;28;20052;-72
2023/08/31 09:15:45;;;;;;;1.80;1.70;;;;;;;;;;4969060;28;20044;-72
2023/08/31 09:18:35;;;;;;;1.70;1.52;;;;;;;;;;4973308;28;20041;-72
2023/08/31 09:21:01;;;;;;;2.67;1.70;;;;;;;;;;5003477;28;20046;-72
2023/08/31 09:23:27;;;;;;;1.67;1.58;;;;;;;;;;4989815;28;20146;-73
2023/08/31 09:25:54;;;;;;;1.60;1.50;;;;;;;;;;5000718;28;20037;-74
2023/08/31 09:28:44;;;;;;;3.10;1.95;;;;;;;;;;4988384;28;20061;-73
2023/08/31 09:31:09;;;;;;;3.60;2.30;;;;;;;;;;4996794;28;20071;-71
2023/08/31 09:33:36;;;;;;;1.88;1.67;;;;;;;;;;4973677;28;20062;-74
2023/08/31 09:36:03;;;;;;;2.97;1.73;;;;;;;;;;4986443;28;20932;-72
2023/08/31 09:38:29;;;;;;;1.80;1.70;;;;;;;;;;5001432;28;20048;-72
2023/08/31 09:41:21;;;;;;;2.03;1.50;;;;;;;;;;5006262;28;20529;-72
2023/08/31 09:43:46;;;;;;;1.52;1.40;;;;;;;;;;4990999;28;20057;-72
2023/08/31 09:46:15;;;;;;;2.00;1.80;;;;;;;;;;4994420;28;20324;-70
2023/08/31 09:48:42;;;;;;;1.63;1.52;;;;;;;;;;4989072;28;20495;-70
2023/08/31 09:51:10;;;;;;;3.22;2.17;;;;;;;;;;4989020;28;20057;-71
2023/08/31 09:53:39;;;;;;;1.48;1.38;;;;;;;;;;5004046;28;20041;-72
2023/08/31 09:56:06;;;;;;;4.05;1.60;;;;;;;;;;4993206;28;20466;-73
2023/08/31 09:58:32;;;;;;;1.85;1.60;;;;;;;;;;5007046;28;20042;-72
2023/08/31 10:00:58;;;;;;;2.40;1.40;;;;;;;;;;4987289;28;20061;-72
2023/08/31 10:03:26;;;;;;;2.65;1.45;;;;;;;;;;4989324;28;20076;-71
2023/08/31 10:05:53;;;;;;;1.50;1.40;;;;;;;;;;5002631;28;20542;-72
2023/08/31 10:08:19;;;;;;;3.33;1.40;;;;;;;;;;4983406;28;20049;-70
2023/08/31 10:10:47;;;;;;;1.80;1.38;;;;;;;;;;4987911;28;20614;-72
2023/08/31 10:13:15;;;;;;;2.45;1.70;;;;;;;;;;5010413;28;20045;-73
2023/08/31 10:15:43;;;;;;;1.45;1.35;;;;;;;;;;5009159;28;20092;-73
2023/08/31 10:18:09;;;;;;;2.10;1.40;;;;;;;;;;5012585;28;20049;-72
2023/08/31 10:20:35;;;;;;;4.22;1.40;;;;;;;;;;4999942;28;20041;-72
2023/08/31 10:23:07;;;;;;;1.60;1.50;;;;;;;;;;4993735;28;20041;-73
2023/08/31 10:25:56;;;;;;;1.98;1.23;;;;;;;;;;5010580;28;20095;-73
2023/08/31 10:28:24;;;;;;;2.60;1.58;;;;;;;;;;4959104;28;20076;-73
2023/08/31 10:31:18;;;;;;;2.95;1.40;;;;;;;;;;5003924;28;20454;-73
2023/08/31 10:33:54;;;;;;;3.15;1.70;;;;;;;;;;4997360;28;20053;-76
2023/08/31 10:36:34;;;;;;;2.42;1.40;;;;;;;;;;4991338;28;20041;-76
2023/08/31 10:39:04;;;;;;;1.77;1.33;;;;;;;;;;5003900;28;20390;-73
2023/08/31 10:41:34;;;;;;;1.70;1.20;;;;;;;;;;5001954;28;20041;-73
2023/08/31 10:44:00;;;;;;;2.25;1.23;;;;;;;;;;4997739;28;20037;-74
2023/08/31 10:46:35;;;;;;;1.65;1.13;;;;;;;;;;4994409;28;20038;-73
2023/08/31 10:49:13;;;;;;;1.42;1.10;;;;;;;;;;4989489;28;20034;-72
2023/08/31 10:52:04;;;;;;;2.42;1.38;;;;;;;;;;5003787;28;20418;-72
2023/08/31 10:54:38;;;;;;;2.10;1.05;;;;;;;;;;4966426;28;20042;-72
2023/08/31 10:57:12;;;;;;;1.83;1.20;;;;;;;;;;5004148;28;20061;-72
2023/08/31 10:59:43;;;;;;;1.38;1.25;;;;;;;;;;5009095;28;20041;-72
2023/08/31 11:02:27;;;;;;;1.45;1.20;;;;;;;;;;5010572;28;20044;-72
2023/08/31 11:04:55;;;;;;;1.42;1.30;;;;;;;;;;5009429;28;20033;-72
2023/08/31 11:07:25;;;;;;;1.35;0.93;;;;;;;;;;4996289;28;20027;-72
2023/08/31 11:09:50;;;;;;;1.55;1.20;;;;;;;;;;5009209;28;20033;-72
2023/08/31 11:12:16;;;;;;;3.22;1.40;;;;;;;;;;5014003;28;20595;-72
2023/08/31 11:14:42;;;;;;;1.52;1.30;;;;;;;;;;5013863;28;20087;-72
2023/08/31 11:17:08;;;;;;;2.38;1.30;;;;;;;;;;4993092;28;20589;-72
2023/08/31 11:19:35;;;;;;;1.75;1.20;;;;;;;;;;4992272;28;20270;-72
2023/08/31 11:22:04;;;;;;;2.75;1.40;;;;;;;;;;4993234;28;20118;-72
2023/08/31 11:24:33;;;;;;;2.53;1.50;;;;;;;;;;5000205;28;20087;-72
2023/08/31 11:26:59;;;;;;;1.92;1.15;;;;;;;;;;4983085;28;20053;-74
2023/08/31 11:29:26;;;;;;;2.38;1.33;;;;;;;;;;5013126;28;20034;-74
2023/08/31 11:31:52;;;;;;;2.03;1.30;;;;;;;;;;4997719;28;20576;-74
2023/08/31 11:34:29;;;;;;;1.77;1.20;;;;;;;;;;5007636;28;20049;-72
2023/08/31 11:36:55;;;;;;;1.30;1.20;;;;;;;;;;5023469;28;20037;-72
2023/08/31 11:39:24;;;;;;;1.92;1.20;;;;;;;;;;5016715;28;20477;-72
2023/08/31 11:41:53;;;;;;;2.50;1.20;;;;;;;;;;5002618;28;20033;-73
2023/08/31 11:44:19;;;;;;;1.05;0.95;;;;;;;;;;5002904;28;20096;-74
2023/08/31 11:46:49;;;;;;;1.58;1.00;;;;;;;;;;4997799;28;20163;-74
2023/08/31 11:49:15;;;;;;;;;;;;;;;;;;4998555;28;20061;-74
2023/08/31 11:51:43;;;;;;;2.15;1.27;;;;;;;;;;5012817;28;19913;-73
2023/08/31 11:54:13;;;;;;;1.58;1.20;;;;;;;;;;5013300;28;20509;-73
2023/08/31 11:56:43;;;;;;;1.10;1.05;;;;;;;;;;5009945;28;20042;-73
2023/08/31 11:59:19;;;;;;;1.60;1.42;;;;;;;;;;4974894;28;20068;-73
2023/08/31 12:01:50;;;;;;;1.88;1.10;;;;;;;;;;4987622;28;20418;-73
2023/08/31 12:04:22;;;;;;;1.42;1.15;;;;;;;;;;5015189;28;20030;-73
2023/08/31 12:06:51;;;;;;;1.48;1.17;;;;;;;;;;5010727;28;20034;-73
2023/08/31 12:09:17;;;;;;;2.10;1.38;;;;;;;;;;4976717;28;20039;-73
2023/08/31 12:11:50;;;;;;;0.90;0.90;;;;;;;;;;5012095;28;20065;-73
2023/08/31 12:14:20;;;;;;;3.88;1.40;;;;;;;;;;4985353;28;20042;-73
2023/08/31 12:16:46;;;;;;;;;;;;;;;;;;5000497;28;20061;-73
2023/08/31 12:19:11;;;;;;;2.00;1.33;;;;;;;;;;5016955;28;19928;-73
2023/08/31 12:21:37;;;;;;;6.80;2.55;;;;;;;;;;5005524;28;20399;-73
2023/08/31 12:24:03;;;;;;;3.92;1.25;;;;;;;;;;5010831;28;20048;-73
2023/08/31 12:26:29;;;;;;;3.00;1.17;;;;;;;;;;4959535;28;20040;-73
2023/08/31 12:29:00;;;;;;;1.42;0.98;;;;;;;;;;5012729;28;20036;-73
2023/08/31 12:31:26;;;;;;;1.35;0.88;;;;;;;;;;5000840;28;20042;-73
2023/08/31 12:33:51;;;;;;;2.58;0.80;;;;;;;;;;4991017;28;20037;-73
2023/08/31 12:36:17;;;;;;;1.90;0.80;;;;;;;;;;5008910;28;20038;-73
2023/08/31 12:38:43;;;;;;;1.20;1.00;;;;;;;;;;4996669;28;20045;-73
2023/08/31 12:41:08;;;;;;;0.60;0.60;;;;;;;;;;4999262;28;20061;-74
2023/08/31 12:43:34;;;;;;;1.35;1.00;;;;;;;;;;5008763;28;20053;-73
2023/08/31 12:46:01;;;;;;;4.20;1.20;;;;;;;;;;5002104;28;20427;-71
2023/08/31 12:48:27;;;;;;;0.98;0.80;;;;;;;;;;5011528;28;20034;-71
2023/08/31 12:50:53;;;;;;;2.75;1.25;;;;;;;;;;4992200;28;20542;-71
2023/08/31 12:53:23;;;;;;;1.73;1.20;;;;;;;;;;5015165;28;20526;-71
2023/08/31 12:55:49;;;;;;;1.27;1.05;;;;;;;;;;4990795;28;20493;-70
2023/08/31 12:58:15;;;;;;;2.75;1.75;;;;;;;;;;4991974;28;20127;-71
2023/08/31 13:00:43;;;;;;;1.58;1.20;;;;;;;;;;5002408;28;20045;-70
2023/08/31 13:03:08;;;;;;;3.85;1.13;;;;;;;;;;5012839;28;20421;-70
2023/08/31 13:05:40;;;;;;;1.42;1.33;;;;;;;;;;5008165;28;20041;-70
2023/08/31 13:08:07;;;;;;;2.95;2.63;;;;;;;;;;4979835;28;20041;-71
2023/08/31 13:10:33;;;;;;;6.82;5.50;;;;;;;;;;5005999;28;20049;-70
2023/08/31 13:12:58;;;;;;;5.50;3.63;;;;;;;;;;5006819;28;20522;-70
2023/08/31 13:15:24;;;;;;;5.85;3.88;;;;;;;;;;5000512;28;20050;-71
2023/08/31 13:17:49;;;;;;;3.40;2.58;;;;;;;;;;5002981;28;20045;-71
2023/08/31 13:20:15;;;;;;;2.58;2.08;;;;;;;;;;4999661;28;20041;-70
2023/08/31 13:22:40;;;;;;;3.70;2.70;;;;;;;;;;4984848;28;20812;-70
2023/08/31 13:25:06;;;;;;;2.10;1.90;;;;;;;;;;4999417;28;20041;-70
2023/08/31 13:27:35;;;;;;;4.97;4.05;;;;;;;;;;5007393;28;20045;-71
2023/08/31 13:30:00;;;;;;;4.13;2.80;;;;;;;;;;5003368;28;20041;-70
2023/08/31 13:32:26;;;;;;;2.38;2.05;;;;;;;;;;5007113;28;20049;-72
2023/08/31 13:34:53;;;;;;;2.60;1.17;;;;;;;;;;4988049;28;20557;-70
2023/08/31 13:37:18;;;;;;;1.33;1.20;;;;;;;;;;4994170;28;20036;-71
2023/08/31 13:39:44;;;;;;;1.20;1.10;;;;;;;;;;4991223;28;20449;-70
2023/08/31 13:42:09;;;;;;;1.55;1.45;;;;;;;;;;4996750;28;20124;-70
2023/08/31 13:44:35;;;;;;;1.88;1.52;;;;;;;;;;4995263;28;20050;-70
2023/08/31 13:47:02;;;;;;;2.45;1.83;;;;;;;;;;5001946;28;20029;-71
2023/08/31 13:49:28;;;;;;;2.13;1.25;;;;;;;;;;4978289;28;20138;-71
2023/08/31 13:51:53;;;;;;;3.47;1.40;;;;;;;;;;4992734;28;20211;-70
2023/08/31 13:54:19;;;;;;;1.50;1.40;;;;;;;;;;5002305;28;20621;-70
2023/08/31 13:56:44;;;;;;;1.80;1.50;;;;;;;;;;4985380;28;20039;-72
2023/08/31 13:59:10;;;;;;;2.90;2.10;;;;;;;;;;4992239;28;20041;-73
2023/08/31 14:01:35;;;;;;;5.13;3.08;;;;;;;;;;4992195;28;20073;-71
2023/08/31 14:04:03;;;;;;;1.40;1.30;;;;;;;;;;5004240;28;20040;-72
2023/08/31 14:06:29;;;;;;;2.28;1.70;;;;;;;;;;4975354;28;20506;-71
2023/08/31 14:08:54;;;;;;;1.50;1.40;;;;;;;;;;5000446;28;20049;-73
2023/08/31 14:11:20;;;;;;;2.65;1.67;;;;;;;;;;5007936;28;20048;-73
2023/08/31 14:13:46;;;;;;;4.05;3.60;;;;;;;;;;4987730;28;20064;-70
2023/08/31 14:16:11;;;;;;;3.85;1.80;;;;;;;;;;5005836;28;20120;-72
2023/08/31 14:18:37;;;;;;;5.70;2.80;;;;;;;;;;4985325;28;20526;-74
2023/08/31 14:21:03;;;;;;;1.52;1.42;;;;;;;;;;4971482;28;20527;-73
2023/08/31 14:23:29;;;;;;;2.67;1.30;;;;;;;;;;5008863;28;20056;-73
2023/08/31 14:26:00;;;;;;;1.73;1.20;;;;;;;;;;5002766;28;20033;-73
2023/08/31 14:28:26;;;;;;;1.00;1.00;;;;;;;;;;5006576;28;20458;-75
2023/08/31 14:30:51;;;;;;;1.65;1.55;;;;;;;;;;5004853;28;20120;-73
2023/08/31 14:33:17;;;;;;;1.35;1.25;;;;;;;;;;4995672;28;20096;-72
2023/08/31 14:35:42;;;;;;;13.55;9.80;;;;;;;;;;5006897;28;20059;-72
2023/08/31 14:38:10;;;;;;;3.90;2.80;;;;;;;;;;5004819;28;20041;-73
2023/08/31 14:40:39;;;;;;;4.07;2.15;;;;;;;;;;5004648;28;20030;-72
2023/08/31 14:43:05;;;;;;;1.20;1.10;;;;;;;;;;4997317;28;20045;-72